Terminal Aerodrome Forecast
Issued by NWS

Home | Current Version | Previous Version | Text Only | Print | Product List | Glossary On
Versions: 1 2 3 4 5 6 7 8 9 10 11 12 13
000
FTUS45 KRIW 251100
TAFJAC
TAF
KJAC 251126Z 2512/2612 VRB05KT P6SM SKC
     FM251900 19012G22KT P6SM SKC
     FM260000 21008KT P6SM SCT100
     FM260400 23007KT P6SM VCSH SCT060 BKN100
      AMD LTD TO CLD VIS AND WIND=

USA.gov is the U.S. government's official web portal to all federal, state and local government web resources and services.